N44CK KAPC-KEUG
Flight info
| Callsign | N44CK |
|---|---|
| Flight time | 1h 24m |
| Altitude | 34000 |
| Route | NAPAA4 SGD RBL |
| Aircraft | C525/L-SDFGRWY/S |
Departure
| Time | 2026-05-08 22:32 |
|---|---|
| Airport | Napa County Airport (KAPC) |
Arrival
| Time | 2026-05-08 23:57 |
|---|---|
| Airport | Eugene Airport (KEUG) |
| Time | Latitude | Longitude | Altitude | Speed | Heading |
|---|---|---|---|---|---|
| 2026-05-08 22:19 | 38.21258 | -122.26890 | 39 ft | 0 kts | 330° |
| 2026-05-08 22:26 | 38.21260 | -122.26891 | 39 ft | 1 kts | 332° |
| 2026-05-08 22:26 | 38.21281 | -122.26905 | 38 ft | 5 kts | 332° |
| 2026-05-08 22:26 | 38.21316 | -122.26928 | 38 ft | 5 kts | 333° |
| 2026-05-08 22:26 | 38.21348 | -122.26949 | 38 ft | 6 kts | 333° |
| 2026-05-08 22:27 | 38.21366 | -122.26987 | 38 ft | 6 kts | 244° |
| 2026-05-08 22:27 | 38.21340 | -122.27050 | 37 ft | 9 kts | 243° |
| 2026-05-08 22:27 | 38.21307 | -122.27132 | 36 ft | 10 kts | 242° |
| 2026-05-08 22:27 | 38.21278 | -122.27203 | 36 ft | 8 kts | 243° |
| 2026-05-08 22:28 | 38.21259 | -122.27265 | 35 ft | 6 kts | 302° |
| 2026-05-08 22:28 | 38.21301 | -122.27296 | 35 ft | 8 kts | 333° |
| 2026-05-08 22:28 | 38.21361 | -122.27336 | 34 ft | 11 kts | 332° |
| 2026-05-08 22:28 | 38.21443 | -122.27390 | 33 ft | 14 kts | 333° |
| 2026-05-08 22:29 | 38.21542 | -122.27455 | 32 ft | 17 kts | 333° |
| 2026-05-08 22:29 | 38.21657 | -122.27528 | 31 ft | 18 kts | 332° |
| 2026-05-08 22:29 | 38.21766 | -122.27600 | 30 ft | 17 kts | 332° |
| 2026-05-08 22:29 | 38.21867 | -122.27665 | 29 ft | 15 kts | 333° |
| 2026-05-08 22:30 | 38.21952 | -122.27716 | 29 ft | 9 kts | 3° |
| 2026-05-08 22:30 | 38.22014 | -122.27689 | 30 ft | 10 kts | 21° |
| 2026-05-08 22:30 | 38.22086 | -122.27655 | 30 ft | 12 kts | 21° |
| 2026-05-08 22:30 | 38.22169 | -122.27616 | 30 ft | 11 kts | 10° |
| 2026-05-08 22:31 | 38.22234 | -122.27646 | 30 ft | 8 kts | 334° |
| 2026-05-08 22:31 | 38.22278 | -122.27685 | 30 ft | 6 kts | 307° |
| 2026-05-08 22:31 | 38.22298 | -122.27747 | 30 ft | 8 kts | 291° |
| 2026-05-08 22:31 | 38.22313 | -122.27801 | 30 ft | 2 kts | 229° |
| 2026-05-08 22:32 | 38.22287 | -122.27816 | 30 ft | 8 kts | 201° |
| 2026-05-08 22:32 | 38.22044 | -122.27929 | 29 ft | 74 kts | 201° |
| 2026-05-08 22:32 | 38.21375 | -122.28265 | 170 ft | 119 kts | 205° |
| 2026-05-08 22:32 | 38.20614 | -122.28738 | 687 ft | 129 kts | 209° |
| 2026-05-08 22:33 | 38.19867 | -122.29524 | 1129 ft | 152 kts | 239° |
| 2026-05-08 22:33 | 38.19498 | -122.30782 | 1842 ft | 159 kts | 254° |
| 2026-05-08 22:33 | 38.19190 | -122.32092 | 2685 ft | 156 kts | 255° |
| 2026-05-08 22:33 | 38.18865 | -122.33449 | 3249 ft | 172 kts | 255° |
| 2026-05-08 22:34 | 38.18627 | -122.34982 | 3770 ft | 188 kts | 277° |
| 2026-05-08 22:34 | 38.19254 | -122.36449 | 4384 ft | 198 kts | 321° |
| 2026-05-08 22:34 | 38.20539 | -122.37038 | 5156 ft | 203 kts | 353° |
| 2026-05-08 22:34 | 38.21957 | -122.37085 | 5902 ft | 208 kts | 1° |
| 2026-05-08 22:35 | 38.23410 | -122.37003 | 6640 ft | 213 kts | 2° |
| 2026-05-08 22:35 | 38.24882 | -122.36890 | 7374 ft | 216 kts | 3° |
| 2026-05-08 22:35 | 38.26383 | -122.36773 | 8107 ft | 218 kts | 2° |
| 2026-05-08 22:35 | 38.27889 | -122.36657 | 8829 ft | 218 kts | 2° |
| 2026-05-08 22:36 | 38.29406 | -122.36543 | 9553 ft | 218 kts | 2° |
| 2026-05-08 22:36 | 38.30911 | -122.36431 | 10258 ft | 217 kts | 1° |
| 2026-05-08 22:36 | 38.32405 | -122.36322 | 10969 ft | 214 kts | 1° |
| 2026-05-08 22:36 | 38.33884 | -122.36214 | 11698 ft | 211 kts | 1° |
| 2026-05-08 22:37 | 38.35327 | -122.36111 | 12410 ft | 206 kts | 0° |
| 2026-05-08 22:37 | 38.36763 | -122.36008 | 13119 ft | 200 kts | 0° |
| 2026-05-08 22:37 | 38.38146 | -122.35910 | 13707 ft | 198 kts | 360° |
| 2026-05-08 22:37 | 38.39536 | -122.35812 | 14297 ft | 196 kts | 359° |
| 2026-05-08 22:38 | 38.40907 | -122.35716 | 14783 ft | 199 kts | 359° |
| 2026-05-08 22:38 | 38.42296 | -122.35620 | 15272 ft | 201 kts | 359° |
| 2026-05-08 22:38 | 38.43703 | -122.35523 | 15756 ft | 203 kts | 359° |
| 2026-05-08 22:38 | 38.45117 | -122.35424 | 16243 ft | 205 kts | 359° |
| 2026-05-08 22:39 | 38.46534 | -122.35325 | 16734 ft | 206 kts | 359° |
| 2026-05-08 22:39 | 38.47957 | -122.35225 | 17209 ft | 206 kts | 358° |
| 2026-05-08 22:39 | 38.49396 | -122.35124 | 17692 ft | 206 kts | 358° |
| 2026-05-08 22:39 | 38.50809 | -122.35024 | 18175 ft | 205 kts | 358° |
| 2026-05-08 22:40 | 38.52222 | -122.34925 | 18663 ft | 203 kts | 358° |
| 2026-05-08 22:40 | 38.53618 | -122.34826 | 19147 ft | 200 kts | 357° |
| 2026-05-08 22:40 | 38.55012 | -122.34728 | 19554 ft | 202 kts | 357° |
| 2026-05-08 22:40 | 38.56420 | -122.34631 | 19927 ft | 205 kts | 357° |
| 2026-05-08 22:41 | 38.57853 | -122.34532 | 20299 ft | 207 kts | 357° |
| 2026-05-08 22:41 | 38.59298 | -122.34431 | 20673 ft | 209 kts | 357° |
| 2026-05-08 22:41 | 38.60770 | -122.34329 | 21051 ft | 211 kts | 357° |
| 2026-05-08 22:41 | 38.62234 | -122.34227 | 21427 ft | 213 kts | 356° |
| 2026-05-08 22:42 | 38.63721 | -122.34122 | 21810 ft | 215 kts | 357° |
| 2026-05-08 22:42 | 38.65230 | -122.34016 | 22191 ft | 216 kts | 356° |
| 2026-05-08 22:42 | 38.66730 | -122.33910 | 22569 ft | 217 kts | 356° |
| 2026-05-08 22:42 | 38.68223 | -122.33805 | 22945 ft | 217 kts | 356° |
| 2026-05-08 22:43 | 38.69737 | -122.33698 | 23321 ft | 217 kts | 356° |
| 2026-05-08 22:43 | 38.71256 | -122.33591 | 23695 ft | 217 kts | 356° |
| 2026-05-08 22:43 | 38.72763 | -122.33484 | 24068 ft | 217 kts | 355° |
| 2026-05-08 22:43 | 38.74271 | -122.33376 | 24443 ft | 215 kts | 355° |
| 2026-05-08 22:44 | 38.75753 | -122.33271 | 24813 ft | 214 kts | 355° |
| 2026-05-08 22:44 | 38.77231 | -122.33166 | 25178 ft | 212 kts | 354° |
| 2026-05-08 22:44 | 38.78680 | -122.33062 | 25535 ft | 210 kts | 354° |
| 2026-05-08 22:44 | 38.80175 | -122.32959 | 25783 ft | 214 kts | 354° |
| 2026-05-08 22:45 | 38.81665 | -122.32857 | 26039 ft | 217 kts | 353° |
| 2026-05-08 22:45 | 38.83190 | -122.32752 | 26297 ft | 219 kts | 354° |
| 2026-05-08 22:45 | 38.84724 | -122.32645 | 26554 ft | 222 kts | 353° |
| 2026-05-08 22:45 | 38.86271 | -122.32536 | 26811 ft | 225 kts | 353° |
| 2026-05-08 22:46 | 38.87853 | -122.32425 | 27069 ft | 227 kts | 353° |
| 2026-05-08 22:46 | 38.89435 | -122.32313 | 27321 ft | 230 kts | 353° |
| 2026-05-08 22:46 | 38.91048 | -122.32200 | 27578 ft | 232 kts | 353° |
| 2026-05-08 22:46 | 38.92657 | -122.32086 | 27830 ft | 234 kts | 353° |
| 2026-05-08 22:47 | 38.94294 | -122.31970 | 28085 ft | 236 kts | 353° |
| 2026-05-08 22:47 | 38.95941 | -122.31853 | 28342 ft | 238 kts | 353° |
| 2026-05-08 22:47 | 38.97609 | -122.31735 | 28594 ft | 239 kts | 353° |
| 2026-05-08 22:47 | 38.99263 | -122.31617 | 28847 ft | 241 kts | 353° |
| 2026-05-08 22:48 | 39.00951 | -122.31496 | 29105 ft | 242 kts | 352° |
| 2026-05-08 22:48 | 39.02649 | -122.31376 | 29357 ft | 243 kts | 352° |
| 2026-05-08 22:48 | 39.04326 | -122.31256 | 29616 ft | 244 kts | 352° |
| 2026-05-08 22:48 | 39.06042 | -122.31133 | 29874 ft | 245 kts | 352° |
| 2026-05-08 22:49 | 39.07735 | -122.31012 | 30134 ft | 245 kts | 352° |
| 2026-05-08 22:49 | 39.11161 | -122.30767 | 30656 ft | 246 kts | 352° |
| 2026-05-08 22:49 | 39.12870 | -122.30645 | 30914 ft | 246 kts | 352° |
| 2026-05-08 22:50 | 39.14557 | -122.30524 | 31171 ft | 246 kts | 352° |
| 2026-05-08 22:50 | 39.16271 | -122.30402 | 31427 ft | 246 kts | 351° |
| 2026-05-08 22:50 | 39.17984 | -122.30279 | 31686 ft | 245 kts | 351° |
| 2026-05-08 22:50 | 39.19706 | -122.30155 | 31949 ft | 245 kts | 351° |
| 2026-05-08 22:51 | 39.21394 | -122.30034 | 32203 ft | 244 kts | 351° |
| 2026-05-08 22:51 | 39.23093 | -122.29911 | 32460 ft | 243 kts | 350° |
| 2026-05-08 22:51 | 39.24781 | -122.29790 | 32715 ft | 241 kts | 350° |
| 2026-05-08 22:51 | 39.26454 | -122.29669 | 32969 ft | 240 kts | 350° |
| 2026-05-08 22:52 | 39.28108 | -122.29549 | 33224 ft | 238 kts | 350° |
| 2026-05-08 22:52 | 39.29755 | -122.29430 | 33475 ft | 236 kts | 349° |
| 2026-05-08 22:52 | 39.31400 | -122.29311 | 33749 ft | 234 kts | 349° |
| 2026-05-08 22:52 | 39.33005 | -122.29196 | 33980 ft | 233 kts | 349° |
| 2026-05-08 22:53 | 39.34659 | -122.29085 | 34006 ft | 240 kts | 349° |
| 2026-05-08 22:53 | 39.36355 | -122.28973 | 34014 ft | 249 kts | 350° |
| 2026-05-08 22:53 | 39.38117 | -122.28855 | 34014 ft | 257 kts | 350° |
| 2026-05-08 22:53 | 39.39924 | -122.28732 | 34012 ft | 266 kts | 350° |
| 2026-05-08 22:54 | 39.41813 | -122.28600 | 34007 ft | 274 kts | 351° |
| 2026-05-08 22:54 | 39.43735 | -122.28465 | 34004 ft | 282 kts | 351° |
| 2026-05-08 22:54 | 39.45730 | -122.28323 | 34005 ft | 289 kts | 352° |
| 2026-05-08 22:54 | 39.47740 | -122.28178 | 34006 ft | 296 kts | 352° |
| 2026-05-08 22:55 | 39.51972 | -122.27872 | 34000 ft | 308 kts | 352° |
| 2026-05-08 22:55 | 39.56308 | -122.27557 | 34003 ft | 319 kts | 352° |
| 2026-05-08 22:56 | 39.60816 | -122.27228 | 34013 ft | 329 kts | 353° |
| 2026-05-08 22:56 | 39.65442 | -122.26891 | 34015 ft | 337 kts | 352° |
| 2026-05-08 22:57 | 39.70161 | -122.26546 | 34011 ft | 343 kts | 353° |
| 2026-05-08 22:57 | 39.74942 | -122.26193 | 34005 ft | 343 kts | 353° |
| 2026-05-08 22:58 | 39.79732 | -122.25841 | 34012 ft | 343 kts | 353° |
| 2026-05-08 22:58 | 39.84488 | -122.25492 | 34005 ft | 344 kts | 353° |
| 2026-05-08 22:59 | 39.89283 | -122.25142 | 33998 ft | 344 kts | 352° |
| 2026-05-08 22:59 | 39.94067 | -122.24792 | 34003 ft | 344 kts | 352° |
| 2026-05-08 23:00 | 39.98835 | -122.24445 | 34011 ft | 344 kts | 352° |
| 2026-05-08 23:00 | 40.03615 | -122.24094 | 34022 ft | 344 kts | 352° |
| 2026-05-08 23:01 | 40.08384 | -122.23747 | 34024 ft | 344 kts | 352° |
| 2026-05-08 23:01 | 40.10756 | -122.23891 | 34032 ft | 332 kts | 342° |
| 2026-05-08 23:01 | 40.13009 | -122.24337 | 34028 ft | 330 kts | 340° |
| 2026-05-08 23:02 | 40.17554 | -122.25401 | 34025 ft | 330 kts | 339° |
| 2026-05-08 23:02 | 40.22067 | -122.26478 | 34036 ft | 331 kts | 339° |
| 2026-05-08 23:03 | 40.26590 | -122.27553 | 34041 ft | 331 kts | 339° |
| 2026-05-08 23:03 | 40.31117 | -122.28626 | 34032 ft | 332 kts | 339° |
| 2026-05-08 23:04 | 40.35659 | -122.29701 | 34027 ft | 332 kts | 339° |
| 2026-05-08 23:04 | 40.40206 | -122.30778 | 34026 ft | 332 kts | 339° |
| 2026-05-08 23:05 | 40.44760 | -122.31857 | 34028 ft | 332 kts | 339° |
| 2026-05-08 23:05 | 40.49313 | -122.32938 | 34036 ft | 332 kts | 339° |
| 2026-05-08 23:06 | 40.53841 | -122.34013 | 34043 ft | 332 kts | 339° |
| 2026-05-08 23:06 | 40.58374 | -122.35091 | 34040 ft | 332 kts | 339° |
| 2026-05-08 23:07 | 40.62926 | -122.36176 | 34058 ft | 331 kts | 339° |
| 2026-05-08 23:07 | 40.67441 | -122.37253 | 34068 ft | 331 kts | 339° |
| 2026-05-08 23:08 | 40.71993 | -122.38340 | 34088 ft | 331 kts | 339° |
| 2026-05-08 23:08 | 40.76512 | -122.39421 | 34096 ft | 331 kts | 339° |
| 2026-05-08 23:09 | 40.81023 | -122.40501 | 34112 ft | 330 kts | 339° |
| 2026-05-08 23:09 | 40.85529 | -122.41582 | 34123 ft | 330 kts | 339° |
| 2026-05-08 23:10 | 40.90048 | -122.42668 | 34139 ft | 330 kts | 339° |
| 2026-05-08 23:10 | 40.94558 | -122.43752 | 34149 ft | 330 kts | 339° |
| 2026-05-08 23:11 | 40.99072 | -122.44840 | 34152 ft | 330 kts | 338° |
| 2026-05-08 23:11 | 41.03552 | -122.45921 | 34159 ft | 330 kts | 339° |
| 2026-05-08 23:12 | 41.08079 | -122.47014 | 34196 ft | 329 kts | 338° |
| 2026-05-08 23:12 | 41.12585 | -122.48103 | 34214 ft | 329 kts | 338° |
| 2026-05-08 23:13 | 41.17090 | -122.49195 | 34234 ft | 329 kts | 339° |
| 2026-05-08 23:13 | 41.21599 | -122.50289 | 34237 ft | 330 kts | 339° |
| 2026-05-08 23:14 | 41.26086 | -122.51379 | 34253 ft | 330 kts | 339° |
| 2026-05-08 23:14 | 41.30609 | -122.52480 | 34240 ft | 331 kts | 338° |
| 2026-05-08 23:15 | 41.35124 | -122.53580 | 34251 ft | 331 kts | 339° |
| 2026-05-08 23:15 | 41.39660 | -122.54686 | 34226 ft | 332 kts | 338° |
| 2026-05-08 23:16 | 41.44218 | -122.55800 | 34224 ft | 332 kts | 339° |
| 2026-05-08 23:16 | 41.48739 | -122.56905 | 34207 ft | 333 kts | 338° |
| 2026-05-08 23:17 | 41.53297 | -122.58021 | 34203 ft | 333 kts | 339° |
| 2026-05-08 23:17 | 41.57846 | -122.59137 | 34200 ft | 333 kts | 339° |
| 2026-05-08 23:18 | 41.62394 | -122.60254 | 34199 ft | 333 kts | 339° |
| 2026-05-08 23:18 | 41.66945 | -122.61374 | 34190 ft | 333 kts | 338° |
| 2026-05-08 23:19 | 41.71506 | -122.62498 | 34202 ft | 333 kts | 338° |
| 2026-05-08 23:19 | 41.76064 | -122.63622 | 34193 ft | 333 kts | 338° |
| 2026-05-08 23:20 | 41.80622 | -122.64748 | 34198 ft | 332 kts | 339° |
| 2026-05-08 23:20 | 41.85169 | -122.65873 | 34212 ft | 333 kts | 338° |
| 2026-05-08 23:21 | 41.89728 | -122.67004 | 34202 ft | 334 kts | 338° |
| 2026-05-08 23:21 | 41.94310 | -122.68141 | 34220 ft | 335 kts | 338° |
| 2026-05-08 23:22 | 41.98886 | -122.69279 | 34226 ft | 335 kts | 338° |
| 2026-05-08 23:22 | 42.03476 | -122.70421 | 34232 ft | 336 kts | 338° |
| 2026-05-08 23:23 | 42.08047 | -122.71561 | 34229 ft | 337 kts | 338° |
| 2026-05-08 23:23 | 42.12662 | -122.72713 | 34215 ft | 338 kts | 338° |
| 2026-05-08 23:24 | 42.17335 | -122.73882 | 34194 ft | 339 kts | 338° |
| 2026-05-08 23:24 | 42.21897 | -122.75024 | 34184 ft | 340 kts | 338° |
| 2026-05-08 23:25 | 42.26576 | -122.76197 | 34162 ft | 342 kts | 339° |
| 2026-05-08 23:25 | 42.31253 | -122.77371 | 34151 ft | 342 kts | 338° |
| 2026-05-08 23:26 | 42.35941 | -122.78549 | 34143 ft | 343 kts | 338° |
| 2026-05-08 23:26 | 42.40629 | -122.79730 | 34150 ft | 343 kts | 339° |
| 2026-05-08 23:27 | 42.45308 | -122.80911 | 33963 ft | 344 kts | 339° |
| 2026-05-08 23:27 | 42.47667 | -122.81503 | 33580 ft | 340 kts | 339° |
| 2026-05-08 23:27 | 42.49964 | -122.82081 | 33213 ft | 336 kts | 339° |
| 2026-05-08 23:28 | 42.52252 | -122.82657 | 32839 ft | 333 kts | 339° |
| 2026-05-08 23:28 | 42.54510 | -122.83227 | 32466 ft | 330 kts | 339° |
| 2026-05-08 23:28 | 42.56778 | -122.83801 | 32087 ft | 327 kts | 339° |
| 2026-05-08 23:28 | 42.58976 | -122.84358 | 31721 ft | 326 kts | 339° |
| 2026-05-08 23:29 | 42.61196 | -122.84922 | 31353 ft | 324 kts | 339° |
| 2026-05-08 23:29 | 42.63423 | -122.85488 | 30973 ft | 322 kts | 339° |
| 2026-05-08 23:29 | 42.65630 | -122.86050 | 30597 ft | 321 kts | 340° |
| 2026-05-08 23:29 | 42.67818 | -122.86607 | 30224 ft | 320 kts | 340° |
| 2026-05-08 23:30 | 42.70016 | -122.87167 | 29849 ft | 320 kts | 340° |
| 2026-05-08 23:30 | 42.72194 | -122.87722 | 29398 ft | 320 kts | 340° |
| 2026-05-08 23:30 | 42.74397 | -122.88285 | 28882 ft | 320 kts | 340° |
| 2026-05-08 23:30 | 42.76572 | -122.88841 | 28386 ft | 320 kts | 341° |
| 2026-05-08 23:31 | 42.78782 | -122.89404 | 27877 ft | 319 kts | 341° |
| 2026-05-08 23:31 | 42.80935 | -122.89954 | 27374 ft | 318 kts | 342° |
| 2026-05-08 23:31 | 42.83100 | -122.90507 | 26866 ft | 318 kts | 342° |
| 2026-05-08 23:31 | 42.85289 | -122.91067 | 26349 ft | 317 kts | 342° |
| 2026-05-08 23:32 | 42.87447 | -122.91619 | 25838 ft | 316 kts | 342° |
| 2026-05-08 23:32 | 42.89594 | -122.92168 | 25333 ft | 314 kts | 342° |
| 2026-05-08 23:32 | 42.91712 | -122.92711 | 24838 ft | 313 kts | 343° |
| 2026-05-08 23:32 | 42.93888 | -122.93269 | 24306 ft | 312 kts | 343° |
| 2026-05-08 23:33 | 42.96006 | -122.93813 | 23789 ft | 311 kts | 343° |
| 2026-05-08 23:33 | 42.98125 | -122.94357 | 23275 ft | 310 kts | 343° |
| 2026-05-08 23:33 | 43.00238 | -122.94900 | 22732 ft | 309 kts | 344° |
| 2026-05-08 23:33 | 43.02335 | -122.95438 | 22206 ft | 307 kts | 344° |
| 2026-05-08 23:34 | 43.04404 | -122.95971 | 21672 ft | 304 kts | 344° |
| 2026-05-08 23:34 | 43.06478 | -122.96503 | 21150 ft | 301 kts | 344° |
| 2026-05-08 23:34 | 43.08535 | -122.97034 | 20624 ft | 298 kts | 344° |
| 2026-05-08 23:34 | 43.10582 | -122.97561 | 20108 ft | 296 kts | 344° |
| 2026-05-08 23:35 | 43.12584 | -122.98077 | 19599 ft | 294 kts | 344° |
| 2026-05-08 23:35 | 43.14489 | -122.98570 | 19112 ft | 292 kts | 344° |
| 2026-05-08 23:35 | 43.16481 | -122.99084 | 18610 ft | 289 kts | 344° |
| 2026-05-08 23:35 | 43.18447 | -122.99593 | 18095 ft | 287 kts | 344° |
| 2026-05-08 23:36 | 43.20415 | -123.00101 | 17579 ft | 286 kts | 344° |
| 2026-05-08 23:36 | 43.22368 | -123.00607 | 17090 ft | 284 kts | 345° |
| 2026-05-08 23:36 | 43.24280 | -123.01103 | 16603 ft | 282 kts | 345° |
| 2026-05-08 23:36 | 43.26200 | -123.01601 | 16114 ft | 280 kts | 345° |
| 2026-05-08 23:37 | 43.28122 | -123.02100 | 15628 ft | 279 kts | 345° |
| 2026-05-08 23:37 | 43.30008 | -123.02589 | 15134 ft | 274 kts | 345° |
| 2026-05-08 23:37 | 43.31842 | -123.03064 | 14654 ft | 269 kts | 345° |
| 2026-05-08 23:37 | 43.33667 | -123.03538 | 14170 ft | 265 kts | 345° |
| 2026-05-08 23:38 | 43.35460 | -123.04004 | 13674 ft | 262 kts | 346° |
| 2026-05-08 23:38 | 43.37228 | -123.04464 | 13202 ft | 259 kts | 345° |
| 2026-05-08 23:38 | 43.38990 | -123.04923 | 12727 ft | 256 kts | 346° |
| 2026-05-08 23:38 | 43.40732 | -123.05377 | 12248 ft | 255 kts | 346° |
| 2026-05-08 23:39 | 43.42439 | -123.05822 | 11781 ft | 253 kts | 346° |
| 2026-05-08 23:39 | 43.44220 | -123.06287 | 11280 ft | 252 kts | 346° |
| 2026-05-08 23:39 | 43.45917 | -123.06731 | 10775 ft | 251 kts | 346° |
| 2026-05-08 23:39 | 43.47629 | -123.07178 | 10302 ft | 251 kts | 347° |
| 2026-05-08 23:40 | 43.49345 | -123.07627 | 9815 ft | 250 kts | 347° |
| 2026-05-08 23:40 | 43.51064 | -123.08076 | 9329 ft | 250 kts | 347° |
| 2026-05-08 23:40 | 43.52755 | -123.08519 | 8842 ft | 249 kts | 347° |
| 2026-05-08 23:40 | 43.54449 | -123.08961 | 8406 ft | 243 kts | 347° |
| 2026-05-08 23:41 | 43.56093 | -123.09391 | 8027 ft | 238 kts | 347° |
| 2026-05-08 23:41 | 43.57692 | -123.09810 | 7648 ft | 233 kts | 347° |
| 2026-05-08 23:41 | 43.59287 | -123.10227 | 7272 ft | 229 kts | 347° |
| 2026-05-08 23:41 | 43.60841 | -123.10635 | 6902 ft | 226 kts | 347° |
| 2026-05-08 23:42 | 43.62379 | -123.11039 | 6532 ft | 224 kts | 347° |
| 2026-05-08 23:42 | 43.63897 | -123.11437 | 6157 ft | 222 kts | 347° |
| 2026-05-08 23:42 | 43.65407 | -123.11835 | 5790 ft | 221 kts | 347° |
| 2026-05-08 23:42 | 43.66930 | -123.12235 | 5419 ft | 220 kts | 347° |
| 2026-05-08 23:43 | 43.68428 | -123.12629 | 5059 ft | 220 kts | 347° |
| 2026-05-08 23:43 | 43.69935 | -123.13026 | 4947 ft | 220 kts | 347° |
| 2026-05-08 23:43 | 43.71439 | -123.13422 | 4933 ft | 217 kts | 347° |
| 2026-05-08 23:43 | 43.72908 | -123.13808 | 4938 ft | 214 kts | 347° |
| 2026-05-08 23:44 | 43.74372 | -123.14194 | 4933 ft | 215 kts | 347° |
| 2026-05-08 23:44 | 43.75849 | -123.14584 | 4943 ft | 220 kts | 347° |
| 2026-05-08 23:44 | 43.77402 | -123.14995 | 4941 ft | 225 kts | 347° |
| 2026-05-08 23:44 | 43.78947 | -123.15402 | 4939 ft | 226 kts | 347° |
| 2026-05-08 23:45 | 43.80485 | -123.15809 | 4939 ft | 228 kts | 347° |
| 2026-05-08 23:45 | 43.82062 | -123.16225 | 4942 ft | 228 kts | 347° |
| 2026-05-08 23:45 | 43.83626 | -123.16638 | 4940 ft | 228 kts | 347° |
| 2026-05-08 23:45 | 43.85182 | -123.17055 | 4940 ft | 227 kts | 346° |
| 2026-05-08 23:46 | 43.86671 | -123.17758 | 4943 ft | 225 kts | 336° |
| 2026-05-08 23:46 | 43.88111 | -123.18614 | 4942 ft | 224 kts | 335° |
| 2026-05-08 23:46 | 43.89519 | -123.19488 | 4942 ft | 224 kts | 334° |
| 2026-05-08 23:46 | 43.90957 | -123.20389 | 4946 ft | 223 kts | 334° |
| 2026-05-08 23:47 | 43.92363 | -123.21268 | 4947 ft | 223 kts | 334° |
| 2026-05-08 23:47 | 43.93787 | -123.22156 | 4950 ft | 222 kts | 334° |
| 2026-05-08 23:47 | 43.95186 | -123.23026 | 4953 ft | 222 kts | 334° |
| 2026-05-08 23:47 | 43.96594 | -123.23901 | 4953 ft | 222 kts | 334° |
| 2026-05-08 23:48 | 43.98018 | -123.24785 | 4868 ft | 224 kts | 334° |
| 2026-05-08 23:48 | 43.99441 | -123.25669 | 4623 ft | 223 kts | 334° |
| 2026-05-08 23:48 | 44.00852 | -123.26544 | 4376 ft | 221 kts | 334° |
| 2026-05-08 23:48 | 44.02268 | -123.27422 | 4126 ft | 219 kts | 335° |
| 2026-05-08 23:49 | 44.03654 | -123.28282 | 3904 ft | 216 kts | 335° |
| 2026-05-08 23:49 | 44.04991 | -123.29112 | 3854 ft | 209 kts | 335° |
| 2026-05-08 23:49 | 44.06326 | -123.29939 | 3854 ft | 209 kts | 335° |
| 2026-05-08 23:49 | 44.07656 | -123.30765 | 3855 ft | 209 kts | 335° |
| 2026-05-08 23:50 | 44.08984 | -123.31590 | 3857 ft | 209 kts | 335° |
| 2026-05-08 23:50 | 44.10317 | -123.32419 | 3857 ft | 208 kts | 335° |
| 2026-05-08 23:50 | 44.11707 | -123.32976 | 3858 ft | 209 kts | 352° |
| 2026-05-08 23:50 | 44.13196 | -123.33103 | 3690 ft | 218 kts | 357° |
| 2026-05-08 23:51 | 44.14592 | -123.33133 | 3480 ft | 226 kts | 358° |
| 2026-05-08 23:51 | 44.16134 | -123.33142 | 3278 ft | 215 kts | 359° |
| 2026-05-08 23:51 | 44.17553 | -123.33147 | 3244 ft | 197 kts | 358° |
| 2026-05-08 23:51 | 44.18726 | -123.33143 | 3240 ft | 182 kts | 0° |
| 2026-05-08 23:52 | 44.20020 | -123.32793 | 3048 ft | 180 kts | 18° |
| 2026-05-08 23:52 | 44.21151 | -123.31921 | 2709 ft | 185 kts | 36° |
| 2026-05-08 23:52 | 44.21987 | -123.30662 | 2467 ft | 175 kts | 54° |
| 2026-05-08 23:52 | 44.22481 | -123.29215 | 2413 ft | 157 kts | 70° |
| 2026-05-08 23:53 | 44.22670 | -123.27683 | 2075 ft | 163 kts | 87° |
| 2026-05-08 23:53 | 44.22536 | -123.26141 | 1939 ft | 152 kts | 104° |
| 2026-05-08 23:53 | 44.22153 | -123.24832 | 1879 ft | 142 kts | 118° |
| 2026-05-08 23:53 | 44.21561 | -123.23712 | 1641 ft | 146 kts | 133° |
| 2026-05-08 23:54 | 44.20816 | -123.22862 | 1450 ft | 130 kts | 147° |
| 2026-05-08 23:54 | 44.20056 | -123.22344 | 1290 ft | 113 kts | 162° |
| 2026-05-08 23:54 | 44.19300 | -123.22154 | 1165 ft | 111 kts | 176° |
| 2026-05-08 23:55 | 44.17636 | -123.22079 | 1136 ft | 120 kts | 180° |
| 2026-05-08 23:55 | 44.16845 | -123.22045 | 1048 ft | 109 kts | 179° |
| 2026-05-08 23:55 | 44.16086 | -123.22021 | 914 ft | 107 kts | 179° |
| 2026-05-08 23:55 | 44.15323 | -123.21989 | 755 ft | 112 kts | 179° |
| 2026-05-08 23:56 | 44.14544 | -123.21957 | 589 ft | 109 kts | 179° |
| 2026-05-08 23:56 | 44.13809 | -123.21931 | 461 ft | 102 kts | 177° |
| 2026-05-08 23:56 | 44.13128 | -123.21914 | 364 ft | 90 kts | 179° |
| 2026-05-08 23:56 | 44.12578 | -123.21903 | 365 ft | 66 kts | 182° |
| 2026-05-08 23:57 | 44.12187 | -123.21899 | 366 ft | 44 kts | 178° |
| 2026-05-08 23:57 | 44.12019 | -123.21855 | 367 ft | 12 kts | 87° |
| 2026-05-08 23:57 | 44.12021 | -123.21746 | 367 ft | 9 kts | 90° |
| 2026-05-08 23:57 | 44.11981 | -123.21705 | 367 ft | 9 kts | 179° |
| 2026-05-08 23:58 | 44.11900 | -123.21703 | 367 ft | 13 kts | 179° |
| 2026-05-08 23:58 | 44.11795 | -123.21703 | 367 ft | 16 kts | 180° |
| 2026-05-08 23:58 | 44.11680 | -123.21700 | 368 ft | 15 kts | 180° |
| 2026-05-08 23:58 | 44.11575 | -123.21699 | 368 ft | 11 kts | 178° |
| 2026-05-08 23:59 | 44.11558 | -123.21638 | 368 ft | 6 kts | 49° |
| 2026-05-08 23:59 | 44.11602 | -123.21629 | 368 ft | 8 kts | 358° |
| 2026-05-08 23:59 | 44.11635 | -123.21609 | 368 ft | 4 kts | 128° |
| 2026-05-08 23:59 | 44.11615 | -123.21581 | 368 ft | 4 kts | 135° |
| 2026-05-09 00:00 | 44.11598 | -123.21555 | 368 ft | 2 kts | 135° |
| 2026-05-09 00:00 | 44.11591 | -123.21555 | 368 ft | 0 kts | 224° |
| 2026-05-09 00:00 | 44.11585 | -123.21564 | 368 ft | 0 kts | 230° |